84.2°F
Current conditions from King Hill
Updated every 5 minutes
 
  Saturday May 28, 2016

Observations for Westford

Westford

44° 37' 39"N, 73° 02' 29"W, Elevation 850 ft.
Eastern Time

Hourly observations for the last 72 hours

Date Time Temperature (F) Humi-
dity

(%)
Wind
(mph)
Pressure Rain (in) Sun
(W/m2)
UV ET
(in)
Air Dew 6 Hour 1 Hr 3 Hr 6 Hr Day
Alt
(in)
Sea
Level

(mb)
Max Min
28 18:00 84.2 61.2 46 Calm 30.00 1016.1 0.00 306 0.0 0.165
28 17:00 85.1 63.8 49 N 0 G 5 30.01 1016.2 0.00 490 0.0 0.155
28 16:00 85.7 63.8 48 N 1 G 6 30.00 1016.1 0.00 629 0.0 0.140
28 15:00 85.8 65.6 51 WNW 0 G 4 30.01 1016.3 0.00 633 0.0 0.121
28 14:00 85.7 64.4 85.7 72.3 49 N 0 G 4 30.01 1016.5 0.00 844 0.0 0.101
28 13:00 82.9 68.1 61 NW 4 G 8 30.02 1016.6 0.00 754 0.0 0.080
28 12:00 80.9 68.5 66 WNW 0 G 7 30.02 1016.6 0.00 858 0.0 0.060
28 11:00 78.8 68.6 71 NNW 0 G 5 30.02 1016.7 0.00 591 0.0 0.042
28 10:00 78.5 67.9 70 WNW 0 G 1 30.01 1016.4 0.00 239 0.0 0.030
28 09:00 75.8 67.3 75 WNW 0 G 5 30.01 1016.4 0.00 513 0.0 0.017
28 08:00 72.3 67.2 72.3 66.9 84 SSW 0 G 1 30.01 1016.2 0.00 202 0.0 0.008
28 07:00 68.9 66.2 91 SSW 0 G 1 30.00 1016.0 0.00 107 0.0 0.004
28 06:00 67.4 64.7 91 Calm 29.98 1015.3 0.00 21 0.0 0.003
28 05:00 67.7 64.3 89 SSW 0 G 1 29.96 1014.5 0.00 0 0.0 0.003
28 04:00 68.7 65.3 89 S 1 G 6 29.94 1013.9 0.00 0 0.0 0.003
28 03:00 68.2 64.5 88 WSW 0 G 6 29.93 1013.4 0.00 0 0.0 0.003
28 02:00 71.2 64.4 79.7 70.1 79 WSW 0 G 2 29.93 1013.5 0.00 0 0.0 0.002
28 01:00 70.9 64.1 79 Calm 29.93 1013.6 0.00 0 0.0 0.001
28 00:00 72.0 63.7 75 WSW 0 G 4 29.92 1013.2 0.00 0 0.0 0.000
27 23:00 74.5 64.1 70 WSW 0 G 1 29.91 1012.8 0.00 0 0.0 0.205
27 22:00 73.4 65.4 76 SW 0 G 6 29.89 1012.3 0.00 0 0.0 0.204
27 21:00 77.3 65.5 67 SSW 6 G 10 29.87 1011.7 0.00 0 0.0 0.203
27 20:00 79.7 66.0 87.5 79.7 63 S 2 G 7 29.85 1010.9 0.00 16 0.0 0.202
27 19:00 83.5 66.2 56 SW 7 G 12 29.84 1010.4 0.00 93 0.0 0.199
27 18:00 85.1 67.7 56 SSW 2 G 11 29.84 1010.4 0.00 329 0.0 0.192
27 17:00 86.2 67.1 53 SSW 6 G 16 29.84 1010.6 0.00 475 0.0 0.181
27 16:00 86.9 66.1 50 SSW 4 G 15 29.85 1010.8 0.00 613 0.0 0.164
27 15:00 86.6 66.3 51 S 3 G 13 29.85 1010.9 0.00 728 0.0 0.143
27 14:00 85.4 66.9 85.4 70.4 54 SW 4 G 12 29.87 1011.4 0.00 800 0.0 0.120
27 13:00 84.3 64.8 52 SW 1 G 14 29.90 1012.4 0.00 826 0.0 0.097
27 12:00 82.3 64.5 55 SW 4 G 12 29.91 1012.8 0.00 814 0.0 0.075
27 11:00 79.9 62.8 56 SSW 4 G 14 29.93 1013.6 0.00 406 0.0 0.055
27 10:00 78.1 63.1 60 SSW 3 G 10 29.94 1013.9 0.00 647 0.0 0.037
27 09:00 74.0 61.5 65 SSW 5 G 11 29.94 1014.1 0.00 452 0.0 0.022
27 08:00 70.4 61.0 70.4 64.2 72 SSW 2 G 9 29.93 1013.7 0.00 322 0.0 0.013
27 07:00 66.4 60.0 80 SSW 0 G 3 29.93 1013.5 0.00 120 0.0 0.008
27 06:00 64.3 58.7 82 SSW 0 G 6 29.93 1013.4 0.00 39 0.0 0.006
27 05:00 65.6 58.6 78 S 1 G 8 29.92 1013.1 0.00 0 0.0 0.005
27 04:00 66.0 59.0 78 S 1 G 9 29.94 1013.8 0.00 0 0.0 0.004
27 03:00 66.3 58.5 76 SSW 4 G 10 29.95 1014.2 0.00 0 0.0 0.003
27 02:00 66.4 56.3 67.3 62.4 70 Calm 29.94 1013.9 0.00 0 0.0 0.002
27 01:00 65.3 56.4 73 Calm 29.93 1013.7 0.00 0 0.0 0.001
27 00:00 62.7 56.1 79 Calm 29.95 1014.2 0.00 0 0.0 0.000
26 23:00 63.1 56.1 78 Calm 29.96 1014.6 0.00 0 0.0 0.168
26 22:00 63.1 55.1 75 Calm 29.97 1014.9 0.00 0 0.0 0.167
26 21:00 64.9 54.1 68 Calm 29.97 1014.8 0.00 0 0.0 0.166
26 20:00 67.3 55.6 78.5 67.3 66 Calm 29.97 1015.0 0.00 0 0.0 0.166
26 19:00 70.2 56.1 61 Calm 29.98 1015.2 0.00 47 0.0 0.165
26 18:00 77.4 51.9 41 E 0 G 5 29.98 1015.4 0.00 350 0.0 0.161
26 17:00 76.7 53.2 44 Calm 29.99 1015.7 0.00 373 0.0 0.151
26 16:00 76.4 52.9 44 Calm 29.99 1015.6 0.00 404 0.0 0.142
26 15:00 76.7 53.2 44 NW 0 G 1 30.00 1016.1 0.00 700 0.0 0.128
26 14:00 77.6 52.7 77.6 60.6 42 N 1 G 7 30.01 1016.4 0.00 851 0.0 0.110
26 13:00 73.8 51.8 46 SE 0 G 7 30.04 1017.3 0.00 847 0.0 0.088
26 12:00 72.4 55.8 56 W 0 G 1 30.06 1017.8 0.00 840 0.0 0.067
26 11:00 71.6 52.5 51 NNW 0 G 6 30.06 1017.9 0.00 772 0.0 0.048
26 10:00 68.0 49.7 52 Calm 30.08 1018.6 0.00 608 0.0 0.031
26 09:00 65.8 55.0 68 Calm 30.09 1019.0 0.00 548 0.0 0.017
26 08:00 60.6 54.1 60.6 49.0 79 Calm 30.09 1019.0 0.00 359 0.0 0.007
26 07:00 54.5 51.9 91 Calm 30.08 1018.7 0.00 95 0.0 0.003
26 06:00 49.8 48.4 95 Calm 30.06 1018.0 0.00 39 0.0 0.002
26 05:00 50.1 48.4 94 Calm 30.05 1017.6 0.00 0 0.0 0.002
26 04:00 50.0 48.3 94 Calm 30.02 1016.7 0.00 0 0.0 0.002
26 03:00 51.5 48.7 90 Calm 30.01 1016.3 0.00 0 0.0 0.002
26 02:00 57.2 51.1 70.7 57.2 80 Calm 30.00 1016.0 0.00 0 0.0 0.002
26 01:00 60.0 51.7 74 NE 0 G 5 30.00 1016.0 0.00 0 0.0 0.001
26 00:00 63.1 55.4 76 NE 1 G 10 30.00 1015.9 0.00 0 0.0 0.000
25 23:00 64.5 56.0 74 Calm 29.98 1015.3 0.00 0 0.0 0.157
25 22:00 64.3 56.2 75 N 0 G 1 29.98 1015.1 0.00 0 0.0 0.156
25 21:00 66.2 56.1 70 Calm 29.95 1014.2 0.00 0 0.0 0.155
25 20:00 70.6 57.0 82.1 70.6 62 Calm 29.93 1013.5 0.00 37 0.0 0.155
25 19:00 73.6 55.4 53 NNW 0 G 2 29.92 1013.2 0.00 65 0.0 0.154

Data generated by WxSolution Version 1.8.8.8, Build 2016.04.03.


 
 
Current Radar Loop:

Copyright © WestfordWeather.net 2007-2016. All rights reserved.